Time;durP1;ratioP1;P1;durP2;ratioP2;P2;SDS_P1;SDS_P2;PMS_P1;PMS_P2;Temp;Humidity;BMP_temperature;BMP_pressure;BME280_temperature;BME280_humidity;BME280_pressure;Samples;Min_cycle;Max_cycle;Signal;HPM_P1;HPM_P2
2022/05/03 00:02:00;;;;;;;7.07;6.37;;;;;;;8.22;100.00;96841.56;5040457;28;20230;-54
2022/05/03 00:04:34;;;;;;;7.07;6.57;;;;;;;8.19;100.00;96846.38;5039776;28;20199;-58
2022/05/03 00:07:07;;;;;;;6.63;6.07;;;;;;;8.18;100.00;96845.56;4978600;28;20407;-53
2022/05/03 00:09:40;;;;;;;7.00;6.40;;;;;;;8.17;100.00;96838.63;5042111;28;20689;-56
2022/05/03 00:12:12;;;;;;;7.20;6.70;;;;;;;8.15;100.00;96843.28;5028436;28;20219;-52
2022/05/03 00:14:46;;;;;;;6.57;6.07;;;;;;;8.10;100.00;96833.22;5041081;28;21011;-54
2022/05/03 00:17:15;;;;;;;6.90;6.40;;;;;;;8.03;100.00;96836.78;5027056;28;20387;-53
2022/05/03 00:19:44;;;;;;;7.90;7.20;;;;;;;7.92;100.00;96845.91;5040563;28;20228;-53
2022/05/03 00:22:14;;;;;;;7.90;7.20;;;;;;;7.92;100.00;96845.91;4997199;28;20218;-54
2022/05/03 00:24:44;;;;;;;7.87;7.17;;;;;;;7.84;100.00;96852.06;5039029;28;20294;-52
2022/05/03 00:27:13;;;;;;;8.63;7.13;;;;;;;7.80;100.00;96845.50;5016902;28;20317;-58
2022/05/03 00:29:41;;;;;;;8.20;7.60;;;;;;;7.75;100.00;96843.38;5041591;28;20227;-52
2022/05/03 00:32:10;;;;;;;8.37;7.77;;;;;;;7.75;100.00;96840.72;5026275;28;20214;-56
2022/05/03 00:34:39;;;;;;;7.77;7.17;;;;;;;7.73;100.00;96844.56;5043278;28;20203;-57
2022/05/03 00:37:08;;;;;;;7.73;7.13;;;;;;;7.72;100.00;96841.06;5000294;28;20236;-57
2022/05/03 00:39:36;;;;;;;7.97;7.27;;;;;;;7.58;100.00;96840.03;5038027;28;20385;-56
2022/05/03 00:42:10;;;;;;;7.40;6.87;;;;;;;7.53;100.00;96840.53;5024782;28;20464;-58
2022/05/03 00:44:58;;;;;;;7.17;6.67;;;;;;;7.49;100.00;96835.78;5043345;28;20211;-54
2022/05/03 00:47:33;;;;;;;7.73;7.07;;;;;;;7.44;100.00;96833.69;5023076;28;20264;-57
2022/05/03 00:50:05;;;;;;;7.97;7.37;;;;;;;7.40;100.00;96837.66;5036194;28;20315;-57
2022/05/03 00:52:41;;;;;;;7.97;7.23;;;;;;;7.32;100.00;96830.59;5002242;28;20708;-59
2022/05/03 00:55:22;;;;;;;7.57;6.97;;;;;;;7.34;100.00;96833.03;5027569;28;21408;-57
2022/05/03 00:58:04;;;;;;;7.83;7.23;;;;;;;7.31;100.00;96831.59;5039751;28;21594;-56
2022/05/03 01:00:34;;;;;;;8.03;7.27;;;;;;;7.23;100.00;96834.25;5043544;28;20430;-53
2022/05/03 01:03:11;;;;;;;7.93;7.33;;;;;;;7.25;100.00;96829.66;5026473;28;20646;-55
2022/05/03 01:05:47;;;;;;;7.87;7.27;;;;;;;7.22;100.00;96824.72;5040828;28;20293;-54
2022/05/03 01:08:30;;;;;;;9.30;8.43;;;;;;;7.20;100.00;96827.50;4995972;28;20535;-58
2022/05/03 01:11:21;;;;;;;8.33;7.67;;;;;;;7.23;100.00;96827.16;5040294;28;20289;-54
2022/05/03 01:13:56;;;;;;;8.27;7.57;;;;;;;7.17;100.00;96827.03;5031103;28;20793;-53
2022/05/03 01:16:30;;;;;;;8.50;7.90;;;;;;;7.16;100.00;96830.66;5031794;28;20534;-58
2022/05/03 01:19:05;;;;;;;8.63;7.93;;;;;;;7.10;100.00;96826.91;5037040;28;20224;-51
2022/05/03 01:21:49;;;;;;;8.97;8.17;;;;;;;7.13;100.00;96834.47;5039019;28;20219;-58
2022/05/03 01:24:33;;;;;;;8.70;7.60;;;;;;;7.12;100.00;96822.28;4999951;28;20307;-55
2022/05/03 01:27:31;;;;;;;8.30;7.70;;;;;;;7.12;100.00;96827.56;5040257;28;20274;-55
2022/05/03 01:30:03;;;;;;;8.33;7.63;;;;;;;7.09;100.00;96828.69;5030337;28;20259;-57
2022/05/03 01:32:32;;;;;;;8.73;8.10;;;;;;;7.07;100.00;96829.88;5026206;28;20391;-56
2022/05/03 01:35:02;;;;;;;8.27;7.53;;;;;;;7.02;100.00;96832.22;5042711;28;20207;-57
2022/05/03 01:37:53;;;;;;;8.40;7.70;;;;;;;7.01;100.00;96835.81;5040046;28;20951;-57
2022/05/03 01:40:27;;;;;;;8.90;8.10;;;;;;;7.05;100.00;96830.03;4997699;28;20955;-57
2022/05/03 01:43:08;;;;;;;9.10;8.40;;;;;;;6.99;100.00;96832.53;5045041;28;20290;-56
2022/05/03 01:45:43;;;;;;;8.87;8.17;;;;;;;6.98;100.00;96833.50;5030944;28;20211;-58
2022/05/03 01:48:20;;;;;;;8.40;7.80;;;;;;;6.93;100.00;96834.84;5024153;28;20675;-56
2022/05/03 01:50:53;;;;;;;9.53;8.57;;;;;;;6.95;100.00;96834.69;5044244;28;20255;-57
2022/05/03 01:53:28;;;;;;;9.13;8.43;;;;;;;6.99;100.00;96827.25;4993984;28;21574;-56
2022/05/03 01:56:17;;;;;;;9.13;8.33;;;;;;;7.12;100.00;96830.19;5037199;28;20548;-58
2022/05/03 01:59:04;;;;;;;10.13;9.30;;;;;;;7.27;100.00;96829.47;5028633;28;20250;-55
2022/05/03 02:01:52;;;;;;;9.67;8.80;;;;;;;7.37;100.00;96824.78;5040214;28;20223;-54
2022/05/03 02:04:38;;;;;;;9.30;8.50;;;;;;;7.48;100.00;96824.41;5028587;28;20525;-54
2022/05/03 02:07:07;;;;;;;9.50;8.77;;;;;;;7.56;100.00;96835.91;5042585;28;20294;-56
2022/05/03 02:09:54;;;;;;;10.00;9.20;;;;;;;7.49;100.00;96833.97;5010268;28;20302;-57
2022/05/03 02:12:22;;;;;;;11.23;10.23;;;;;;;7.52;100.00;96831.00;5040496;28;20705;-55
2022/05/03 02:14:51;;;;;;;11.83;10.83;;;;;;;7.63;100.00;96832.41;5029431;28;20221;-54
2022/05/03 02:17:48;;;;;;;11.83;10.80;;;;;;;7.63;100.00;96832.41;5039727;28;20492;-56
2022/05/03 02:20:32;;;;;;;11.30;10.40;;;;;;;7.65;100.00;96826.94;5028288;28;20686;-54
2022/05/03 02:23:29;;;;;;;11.23;10.33;;;;;;;7.59;100.00;96830.28;5043663;28;20303;-56
2022/05/03 02:26:08;;;;;;;11.97;10.87;;;;;;;7.60;100.00;96829.28;5005452;28;20230;-54
2022/05/03 02:28:40;;;;;;;11.37;10.27;;;;;;;7.60;100.00;96824.84;5020231;28;20343;-54
2022/05/03 02:31:10;;;;;;;11.97;10.87;;;;;;;7.57;100.00;96827.81;5022228;28;20544;-58
2022/05/03 02:33:49;;;;;;;12.70;11.63;;;;;;;7.66;100.00;96825.97;5032938;28;20316;-56
2022/05/03 02:36:18;;;;;;;11.13;10.23;;;;;;;7.69;100.00;96817.69;5038771;28;20893;-54
2022/05/03 02:38:51;;;;;;;10.97;10.07;;;;;;;7.63;100.00;96824.50;5030160;28;20386;-52
2022/05/03 02:41:20;;;;;;;23.93;11.20;;;;;;;7.61;100.00;96823.88;4997598;28;20235;-53
2022/05/03 02:43:50;;;;;;;10.57;9.67;;;;;;;7.70;100.00;96827.25;5016084;28;20215;-54
2022/05/03 02:46:39;;;;;;;9.63;8.83;;;;;;;7.61;100.00;96818.59;5018729;28;21281;-52
2022/05/03 02:49:13;;;;;;;10.90;10.00;;;;;;;7.65;100.00;96816.41;5024583;28;20756;-53
2022/05/03 02:51:48;;;;;;;10.93;9.93;;;;;;;7.66;100.00;96818.03;5043896;28;20229;-57
2022/05/03 02:54:25;;;;;;;10.60;9.70;;;;;;;7.60;100.00;96818.75;5026770;28;20792;-57
2022/05/03 02:57:00;;;;;;;11.23;10.07;;;;;;;7.59;100.00;96819.75;4994829;28;20580;-54
2022/05/03 03:02:23;;;;;;;10.03;9.23;;;;;;;7.56;100.00;96820.09;5020842;28;20215;-55
2022/05/03 03:05:00;;;;;;;10.23;9.33;;;;;;;7.55;100.00;96813.19;5027133;28;20297;-55
2022/05/03 03:07:30;;;;;;;9.43;8.63;;;;;;;7.55;100.00;96813.97;5043669;28;20587;-56
2022/05/03 03:10:04;;;;;;;10.47;9.57;;;;;;;7.56;100.00;96820.09;5023668;28;20254;-56
2022/05/03 03:12:40;;;;;;;9.83;8.93;;;;;;;7.52;100.00;96814.34;4990783;28;20255;-59
2022/05/03 03:15:10;;;;;;;10.77;9.93;;;;;;;7.46;100.00;96809.75;5037646;28;20588;-56
2022/05/03 03:17:42;;;;;;;10.20;9.30;;;;;;;7.44;100.00;96812.59;5020365;28;20211;-55
2022/05/03 03:20:13;;;;;;;10.30;9.40;;;;;;;7.41;100.00;96812.94;5022828;28;20724;-55
2022/05/03 03:22:42;;;;;;;8.90;8.20;;;;;;;7.39;100.00;96809.66;5032396;28;20206;-56
2022/05/03 03:25:13;;;;;;;10.13;9.23;;;;;;;7.31;100.00;96817.56;5033308;28;20356;-59
2022/05/03 03:27:43;;;;;;;10.40;9.50;;;;;;;7.26;100.00;96810.22;4994899;28;20477;-56
2022/05/03 03:30:13;;;;;;;9.53;8.70;;;;;;;7.22;100.00;96816.81;5038993;28;20222;-55
2022/05/03 03:32:43;;;;;;;10.53;9.63;;;;;;;7.19;100.00;96815.34;5039816;28;20215;-53
2022/05/03 03:35:14;;;;;;;9.37;8.63;;;;;;;7.20;100.00;96813.53;4999542;28;20199;-56
2022/05/03 03:37:43;;;;;;;10.67;9.77;;;;;;;7.19;100.00;96807.44;5047840;28;20297;-57
2022/05/03 03:40:13;;;;;;;9.97;9.17;;;;;;;7.17;100.00;96814.69;5035132;28;23992;-58
2022/05/03 03:42:42;;;;;;;10.30;9.40;;;;;;;7.14;100.00;96811.56;5046457;28;20245;-53
2022/05/03 03:45:12;;;;;;;8.53;7.83;;;;;;;7.19;100.00;96812.69;5006566;28;20214;-55
2022/05/03 03:47:42;;;;;;;9.73;8.87;;;;;;;7.24;100.00;96815.63;5045090;28;20653;-54
2022/05/03 03:50:12;;;;;;;10.03;9.10;;;;;;;7.23;100.00;96815.81;5020740;28;20250;-61
2022/05/03 03:52:42;;;;;;;9.80;9.00;;;;;;;7.29;100.00;96817.75;5029499;28;20207;-57
2022/05/03 03:55:11;;;;;;;10.20;9.40;;;;;;;7.32;100.00;96817.41;5026431;28;20203;-56
2022/05/03 03:57:40;;;;;;;9.00;8.30;;;;;;;7.37;100.00;96814.25;5046177;28;20203;-56
2022/05/03 04:00:10;;;;;;;9.60;8.80;;;;;;;7.38;100.00;96813.25;5005866;28;20302;-57
2022/05/03 04:02:38;;;;;;;9.90;9.00;;;;;;;7.42;100.00;96808.47;5045986;28;20305;-56
2022/05/03 04:05:08;;;;;;;9.37;8.63;;;;;;;7.41;100.00;96812.09;5023157;28;20305;-53
2022/05/03 04:07:38;;;;;;;8.40;7.80;;;;;;;7.48;100.00;96823.59;5030932;28;20293;-53
2022/05/03 04:10:07;;;;;;;9.20;8.47;;;;;;;7.50;100.00;96819.78;5040309;28;20226;-55
2022/05/03 04:12:36;;;;;;;10.17;9.37;;;;;;;7.49;100.00;96823.44;5024874;28;20214;-58
2022/05/03 04:15:04;;;;;;;10.50;9.60;;;;;;;7.52;100.00;96816.97;5011735;28;20211;-57
2022/05/03 04:17:36;;;;;;;9.20;8.43;;;;;;;7.59;100.00;96830.28;5045848;28;20231;-57
2022/05/03 04:20:05;;;;;;;9.67;8.90;;;;;;;7.57;100.00;96819.09;5022139;28;20223;-56
2022/05/03 04:22:34;;;;;;;10.17;9.10;;;;;;;7.59;100.00;96827.66;5046304;28;20660;-52
2022/05/03 04:25:05;;;;;;;9.10;8.40;;;;;;;7.65;100.00;96832.22;5025743;28;20199;-54
2022/05/03 04:27:34;;;;;;;9.67;8.87;;;;;;;7.70;100.00;96829.06;5033083;28;20206;-52
2022/05/03 04:30:03;;;;;;;10.47;9.30;;;;;;;7.73;100.00;96826.91;4993327;28;20361;-58
2022/05/03 04:32:32;;;;;;;9.50;8.70;;;;;;;7.84;100.00;96835.44;5047985;28;20199;-54
2022/05/03 04:35:00;;;;;;;9.13;8.37;;;;;;;7.92;100.00;96822.16;5022550;28;20298;-57
2022/05/03 04:37:29;;;;;;;10.03;8.90;;;;;;;7.95;100.00;96827.94;5048374;28;20202;-56
2022/05/03 04:39:57;;;;;;;8.23;7.63;;;;;;;8.02;100.00;96828.03;5026593;28;20677;-57
2022/05/03 04:42:27;;;;;;;9.57;8.83;;;;;;;8.03;100.00;96832.31;5044861;28;20225;-56
2022/05/03 04:44:55;;;;;;;9.13;8.33;;;;;;;8.16;100.00;96831.72;5020959;28;20664;-57
2022/05/03 04:47:23;;;;;;;9.53;8.77;;;;;;;8.18;100.00;96829.72;5002885;28;20211;-58
2022/05/03 04:49:51;;;;;;;9.17;8.47;;;;;;;8.13;100.00;96825.97;5032979;28;20254;-56
2022/05/03 04:52:20;;;;;;;9.40;8.70;;;;;;;8.24;100.00;96830.84;5019457;28;20318;-55
2022/05/03 04:54:48;;;;;;;9.97;9.00;;;;;;;8.28;100.00;96832.13;5027510;28;20713;-53
2022/05/03 04:57:16;;;;;;;8.67;7.97;;;;;;;8.33;100.00;96829.75;5041594;28;20326;-57
2022/05/03 04:59:46;;;;;;;9.03;8.27;;;;;;;8.49;100.00;96830.59;5026006;28;20425;-55
2022/05/03 05:02:15;;;;;;;9.40;8.70;;;;;;;8.40;100.00;96827.25;4999851;28;20223;-57
2022/05/03 05:04:43;;;;;;;9.50;8.63;;;;;;;8.34;100.00;96830.59;5021690;28;20847;-52
2022/05/03 05:07:11;;;;;;;9.27;8.40;;;;;;;8.33;100.00;96824.47;5041866;28;21028;-53
2022/05/03 05:10:23;;;;;;;10.50;9.53;;;;;;;8.44;100.00;96827.69;5023853;28;20710;-57
2022/05/03 05:12:30;;;;;;;9.67;8.93;;;;;;;8.52;100.00;96828.47;5016888;28;20202;-54
2022/05/03 05:15:00;;;;;;;9.03;8.33;;;;;;;8.49;100.00;96834.09;5030716;28;20374;-53
2022/05/03 05:17:28;;;;;;;10.03;9.10;;;;;;;8.58;100.00;96824.28;4980871;28;25735;-56
2022/05/03 05:19:56;;;;;;;9.63;8.73;;;;;;;8.60;100.00;96837.31;5042202;28;20222;-56
2022/05/03 05:22:25;;;;;;;8.40;7.80;;;;;;;8.55;100.00;96840.50;5020411;28;20464;-53
2022/05/03 05:24:53;;;;;;;9.13;8.33;;;;;;;8.66;100.00;96840.06;5008018;28;20731;-54
2022/05/03 05:27:21;;;;;;;9.43;8.53;;;;;;;8.78;100.00;96836.97;5038412;28;20308;-57
2022/05/03 05:29:49;;;;;;;8.87;8.17;;;;;;;8.98;100.00;96831.97;5023572;28;20235;-54
2022/05/03 05:32:20;;;;;;;8.97;8.27;;;;;;;9.08;100.00;96829.84;5002041;28;20203;-58
2022/05/03 05:34:50;;;;;;;8.47;7.80;;;;;;;9.12;100.00;96840.88;5043099;28;20256;-51
2022/05/03 05:37:19;;;;;;;9.10;8.43;;;;;;;9.11;100.00;96834.81;5022563;28;20221;-58
2022/05/03 05:39:47;;;;;;;9.27;8.13;;;;;;;9.26;100.00;96837.41;5007233;28;20227;-53
2022/05/03 05:42:16;;;;;;;8.53;7.93;;;;;;;9.24;100.00;96836.78;5043234;28;20573;-56
2022/05/03 05:44:44;;;;;;;9.60;8.90;;;;;;;9.09;100.00;96835.97;5047707;28;20198;-54
2022/05/03 05:47:13;;;;;;;9.70;8.80;;;;;;;9.15;100.00;96839.72;5030337;28;20753;-55
2022/05/03 05:49:43;;;;;;;9.00;8.20;;;;;;;9.12;100.00;96840.88;5002216;28;20730;-54
2022/05/03 05:54:57;;;;;;;9.13;7.93;;;;;;;9.17;100.00;96843.81;5041739;28;20686;-56
2022/05/03 05:57:25;;;;;;;8.83;8.13;;;;;;;9.12;100.00;96843.53;5027709;28;20218;-51
2022/05/03 05:59:53;;;;;;;8.53;7.83;;;;;;;9.14;100.00;96844.16;5044346;28;20357;-55
2022/05/03 06:02:21;;;;;;;9.13;8.43;;;;;;;9.33;100.00;96855.19;5030309;28;20334;-56
2022/05/03 06:04:51;;;;;;;8.60;7.90;;;;;;;9.41;100.00;96852.44;5009857;28;20257;-54
2022/05/03 06:07:22;;;;;;;8.43;7.83;;;;;;;9.36;100.00;96850.34;5026584;28;20202;-59
2022/05/03 06:09:51;;;;;;;8.87;8.17;;;;;;;9.52;100.00;96849.31;5025949;28;20566;-55
2022/05/03 06:12:20;;;;;;;8.03;7.43;;;;;;;9.64;100.00;96851.47;5027870;28;20198;-57
2022/05/03 06:14:48;;;;;;;8.07;7.37;;;;;;;9.87;100.00;96855.81;5045991;28;20524;-55
2022/05/03 06:17:17;;;;;;;8.43;7.83;;;;;;;10.04;100.00;96843.16;5027604;28;20589;-55
2022/05/03 06:19:46;;;;;;;7.73;7.03;;;;;;;10.20;100.00;96848.19;5002177;28;20736;-57
2022/05/03 06:22:16;;;;;;;7.60;7.03;;;;;;;10.50;100.00;96842.75;5046076;28;20235;-57
2022/05/03 06:24:46;;;;;;;7.87;7.27;;;;;;;10.37;100.00;96850.59;5027754;28;20199;-57
2022/05/03 06:27:15;;;;;;;7.93;7.37;;;;;;;10.49;100.00;96845.63;5020030;28;20240;-56
2022/05/03 06:29:43;;;;;;;7.97;7.37;;;;;;;10.62;100.00;96851.00;5032724;28;20199;-53
2022/05/03 06:32:11;;;;;;;6.53;6.13;;;;;;;10.97;100.00;96853.69;5032262;28;20306;-58
2022/05/03 06:34:40;;;;;;;7.40;6.80;;;;;;;11.05;100.00;96849.25;5003546;28;22953;-57
2022/05/03 06:37:08;;;;;;;7.60;6.90;;;;;;;11.15;100.00;96855.00;5047010;28;20237;-55
2022/05/03 06:39:38;;;;;;;8.17;7.47;;;;;;;11.28;100.00;96859.56;5026862;28;20289;-52
2022/05/03 06:42:07;;;;;;;7.37;6.87;;;;;;;11.44;100.00;96861.91;5027965;28;20238;-57
2022/05/03 06:44:37;;;;;;;6.93;6.50;;;;;;;11.98;100.00;96869.25;5029032;28;20396;-54
2022/05/03 06:47:06;;;;;;;7.40;6.80;;;;;;;11.93;100.00;96861.03;5032913;28;20211;-56
2022/05/03 06:49:34;;;;;;;6.97;6.47;;;;;;;12.16;100.00;96869.50;5000495;28;20212;-58
2022/05/03 06:52:03;;;;;;;7.30;6.70;;;;;;;12.28;100.00;96879.53;5045932;28;20310;-55
2022/05/03 06:54:31;;;;;;;7.10;6.60;;;;;;;12.30;100.00;96873.00;5028369;28;20367;-56
2022/05/03 06:57:01;;;;;;;7.30;6.80;;;;;;;12.44;100.00;96878.31;5044150;28;20207;-54
2022/05/03 06:59:29;;;;;;;7.60;6.90;;;;;;;12.26;100.00;96878.91;5028436;28;20719;-58
2022/05/03 07:01:57;;;;;;;8.17;7.57;;;;;;;12.32;100.00;96883.44;5047266;28;20570;-57
2022/05/03 07:04:26;;;;;;;7.10;6.53;;;;;;;12.58;100.00;96877.31;4988571;28;22007;-52
2022/05/03 07:06:54;;;;;;;6.90;6.40;;;;;;;13.06;100.00;96878.09;5043439;28;20211;-55
2022/05/03 07:09:23;;;;;;;7.27;6.77;;;;;;;13.41;100.00;96872.47;5025574;28;20318;-59
2022/05/03 07:11:51;;;;;;;6.87;6.37;;;;;;;13.70;100.00;96875.69;5046853;28;20501;-56
2022/05/03 07:14:22;;;;;;;6.70;6.27;;;;;;;13.89;100.00;96871.28;5022063;28;20289;-58
2022/05/03 07:16:50;;;;;;;6.87;6.27;;;;;;;13.99;100.00;96872.69;5040145;28;20623;-53
2022/05/03 07:24:52;;;;;;;6.60;6.00;;;;;;;14.34;100.00;96864.25;5021883;28;20277;-54
2022/05/03 07:27:20;;;;;;;6.00;5.60;;;;;;;14.46;100.00;96875.84;5023357;28;20266;-57
2022/05/03 07:29:50;;;;;;;6.27;5.87;;;;;;;14.55;100.00;96880.91;5030529;28;20600;-56
2022/05/03 07:32:20;;;;;;;6.30;5.80;;;;;;;14.53;100.00;96875.81;5039118;28;20212;-56
2022/05/03 07:34:48;;;;;;;6.30;5.87;;;;;;;14.38;100.00;96872.63;5033891;28;20353;-56
2022/05/03 07:37:16;;;;;;;5.80;5.50;;;;;;;14.37;100.00;96871.00;5001483;28;20560;-54
2022/05/03 07:39:44;;;;;;;7.37;6.67;;;;;;;14.34;100.00;96866.94;5047714;28;20341;-52
2022/05/03 07:42:13;;;;;;;6.17;5.77;;;;;;;14.52;100.00;96873.34;5013154;28;20210;-58
2022/05/03 07:44:41;;;;;;;6.20;5.70;;;;;;;14.27;100.00;96872.28;5030810;28;20359;-56
2022/05/03 07:47:11;;;;;;;5.47;5.07;;;;;;;14.40;100.00;96876.72;5041215;28;20203;-58
2022/05/03 07:49:39;;;;;;;6.00;5.60;;;;;;;14.47;100.00;96877.47;5029683;28;20779;-55
2022/05/03 07:52:08;;;;;;;5.93;5.50;;;;;;;14.74;100.00;96879.16;5005675;28;21019;-55
2022/05/03 07:54:36;;;;;;;6.17;5.67;;;;;;;14.72;100.00;96876.72;5043211;28;20487;-58
2022/05/03 07:57:06;;;;;;;6.33;5.70;;;;;;;14.60;100.00;96883.78;5024265;28;20607;-56
2022/05/03 07:59:35;;;;;;;5.90;5.43;;;;;;;14.62;100.00;96879.84;5029928;28;20207;-55
2022/05/03 08:02:03;;;;;;;5.93;5.43;;;;;;;14.56;100.00;96877.22;5032613;28;20427;-54
2022/05/03 08:04:34;;;;;;;5.53;5.13;;;;;;;14.43;100.00;96880.81;5028239;28;20481;-57
2022/05/03 08:07:02;;;;;;;6.23;5.83;;;;;;;14.65;100.00;96886.59;5007436;28;20868;-56
2022/05/03 08:09:30;;;;;;;6.47;5.83;;;;;;;14.71;100.00;96883.09;5040656;28;20282;-55
2022/05/03 08:12:00;;;;;;;5.80;5.20;;;;;;;15.02;100.00;96881.38;5045439;28;20226;-57
2022/05/03 08:14:28;;;;;;;4.83;4.53;;;;;;;14.93;100.00;96877.34;5026228;28;20492;-54
2022/05/03 08:17:01;;;;;;;4.80;4.50;;;;;;;15.17;100.00;96888.22;5021335;28;20215;-54
2022/05/03 08:19:30;;;;;;;4.73;4.37;;;;;;;15.30;100.00;96888.06;5035336;28;20541;-58
2022/05/03 08:21:59;;;;;;;4.67;4.37;;;;;;;15.39;100.00;96877.91;5028594;28;20203;-56
2022/05/03 08:24:28;;;;;;;6.37;5.77;;;;;;;15.48;100.00;96878.44;4999229;28;20227;-54
2022/05/03 08:26:57;;;;;;;6.40;5.90;;;;;;;15.42;100.00;96879.34;5047349;28;20232;-56
2022/05/03 08:29:27;;;;;;;5.87;5.47;;;;;;;15.38;100.00;96878.16;5024185;28;20301;-56
2022/05/03 08:31:55;;;;;;;5.67;5.27;;;;;;;15.44;100.00;96885.28;5032249;28;20211;-54
2022/05/03 08:34:23;;;;;;;6.30;5.80;;;;;;;15.36;100.00;96890.91;5042548;28;20392;-55
2022/05/03 08:42:25;;;;;;;6.30;5.90;;;;;;;15.79;100.00;96895.34;5038968;28;20211;-54
2022/05/03 08:44:53;;;;;;;5.40;5.10;;;;;;;15.84;100.00;96889.31;5028869;28;20712;-58
2022/05/03 08:47:21;;;;;;;5.10;4.70;;;;;;;15.97;100.00;96899.03;5026629;28;20272;-58
2022/05/03 08:49:56;;;;;;;6.07;5.57;;;;;;;16.07;100.00;96901.97;5043762;28;20227;-56
2022/05/03 08:52:27;;;;;;;6.13;5.57;;;;;;;16.17;100.00;96899.59;5026407;28;20280;-51
2022/05/03 08:54:58;;;;;;;5.43;5.13;;;;;;;16.11;100.00;96903.19;4995895;28;20345;-54
2022/05/03 08:57:28;;;;;;;6.20;5.77;;;;;;;16.28;100.00;96899.88;5031203;28;20549;-52
2022/05/03 08:59:57;;;;;;;5.50;5.20;;;;;;;16.46;100.00;96897.09;5017604;28;20234;-55
2022/05/03 09:02:25;;;;;;;5.93;5.53;;;;;;;16.71;100.00;96893.44;5015991;28;20495;-57
2022/05/03 09:04:53;;;;;;;6.30;5.90;;;;;;;16.89;100.00;96900.56;5033437;28;21625;-56
2022/05/03 09:07:23;;;;;;;5.43;5.03;;;;;;;16.87;100.00;96899.19;5022112;28;20204;-58
2022/05/03 09:09:53;;;;;;;5.87;5.47;;;;;;;17.01;100.00;96887.22;4995556;28;20227;-57
2022/05/03 09:12:28;;;;;;;5.73;5.30;;;;;;;17.05;100.00;96888.38;5031157;28;20246;-56
2022/05/03 09:14:57;;;;;;;5.93;5.43;;;;;;;16.71;100.00;96895.31;5036242;28;20286;-53
2022/05/03 09:17:40;;;;;;;6.30;5.70;;;;;;;16.97;100.00;96893.22;5008494;28;20219;-52
2022/05/03 09:25:53;;;;;;;4.97;4.67;;;;;;;17.64;100.00;96890.19;4997764;28;20893;-56
2022/05/03 09:28:24;;;;;;;5.30;4.77;;;;;;;17.63;100.00;96887.75;5033272;28;20235;-55
2022/05/03 09:30:56;;;;;;;5.20;4.80;;;;;;;17.67;100.00;96883.53;5036602;28;20223;-59
2022/05/03 09:33:25;;;;;;;4.77;4.37;;;;;;;17.75;93.82;96887.72;5002988;28;20777;-56
2022/05/03 09:35:53;;;;;;;4.87;4.57;;;;;;;17.64;86.90;96886.69;5036641;28;20227;-57
2022/05/03 09:38:21;;;;;;;4.43;4.23;;;;;;;18.16;77.39;96880.47;5033017;28;20206;-57
2022/05/03 09:40:52;;;;;;;4.87;4.40;;;;;;;18.38;77.09;96879.81;4997082;28;20237;-58
2022/05/03 09:43:22;;;;;;;4.63;4.33;;;;;;;18.55;75.53;96877.09;5036810;28;20804;-53
2022/05/03 09:46:04;;;;;;;4.70;4.40;;;;;;;18.27;68.48;96872.63;5047746;28;20294;-58
2022/05/03 09:48:54;;;;;;;4.60;4.20;;;;;;;18.06;75.99;96880.31;5031917;28;20626;-55
2022/05/03 09:51:23;;;;;;;4.83;4.43;;;;;;;18.71;70.55;96878.19;5030274;28;20533;-54
2022/05/03 09:53:58;;;;;;;4.67;4.37;;;;;;;19.00;65.50;96875.44;5047404;28;20305;-54
2022/05/03 09:56:28;;;;;;;3.87;3.67;;;;;;;19.39;58.62;96866.59;5005051;28;20430;-52
2022/05/03 09:59:04;;;;;;;4.67;4.27;;;;;;;20.10;60.29;96870.38;5044440;28;20206;-56
2022/05/03 10:01:32;;;;;;;5.00;4.70;;;;;;;20.48;56.67;96871.28;5047932;28;20218;-51
2022/05/03 10:04:01;;;;;;;4.33;4.03;;;;;;;20.64;54.38;96869.53;5029128;28;20314;-54
2022/05/03 10:06:29;;;;;;;4.70;4.40;;;;;;;20.43;53.94;96868.53;5035242;28;20298;-57
2022/05/03 10:08:58;;;;;;;4.13;3.83;;;;;;;20.77;49.22;96862.09;5045974;28;20740;-56
2022/05/03 10:11:27;;;;;;;4.03;3.73;;;;;;;20.23;51.42;96861.91;5002897;28;20854;-55
2022/05/03 10:13:55;;;;;;;4.73;4.43;;;;;;;20.54;49.64;96864.88;5041320;28;21711;-55
2022/05/03 10:22:04;;;;;;;4.00;3.70;;;;;;;21.17;44.72;96847.28;5033294;28;20942;-58
2022/05/03 10:24:53;;;;;;;3.53;3.33;;;;;;;21.52;46.29;96848.53;5046835;28;20245;-56
2022/05/03 10:27:24;;;;;;;4.83;4.53;;;;;;;21.76;46.17;96841.91;5000465;28;20943;-56
2022/05/03 10:30:15;;;;;;;4.23;3.93;;;;;;;21.58;45.44;96840.47;5037742;28;20230;-58
2022/05/03 10:32:44;;;;;;;3.67;3.47;;;;;;;21.20;46.31;96836.00;5045287;28;20309;-57
2022/05/03 10:35:35;;;;;;;3.87;3.57;;;;;;;21.07;46.42;96831.91;5025697;28;20199;-53
2022/05/03 10:38:07;;;;;;;4.00;3.80;;;;;;;21.37;47.65;96825.03;5025686;28;20212;-57
2022/05/03 10:40:41;;;;;;;3.50;3.40;;;;;;;20.95;47.71;96825.88;5043058;28;20322;-56
2022/05/03 10:43:14;;;;;;;4.10;3.80;;;;;;;21.39;46.61;96825.56;5006289;28;20218;-57
2022/05/03 10:45:53;;;;;;;3.73;3.53;;;;;;;20.89;44.98;96825.06;5039443;28;20222;-53
2022/05/03 10:48:28;;;;;;;3.90;3.67;;;;;;;21.12;45.77;96831.09;5034833;28;20204;-55
2022/05/03 10:50:59;;;;;;;4.30;4.10;;;;;;;20.54;45.85;96837.16;5023627;28;20236;-57
2022/05/03 10:53:29;;;;;;;3.87;3.67;;;;;;;20.53;48.22;96830.16;5030768;28;20583;-57
2022/05/03 10:56:09;;;;;;;3.73;3.53;;;;;;;20.68;47.40;96824.09;5036430;28;20199;-54
2022/05/03 10:58:38;;;;;;;4.37;3.97;;;;;;;19.89;49.37;96827.13;4999637;28;20212;-53
2022/05/03 11:01:16;;;;;;;4.10;3.80;;;;;;;19.92;49.98;96826.66;5035071;28;20843;-56
2022/05/03 11:04:10;;;;;;;3.33;3.20;;;;;;;19.81;49.99;96820.31;5041589;28;20239;-57
2022/05/03 11:06:42;;;;;;;4.40;4.00;;;;;;;19.19;50.59;96814.22;5025721;28;20242;-57
2022/05/03 11:09:11;;;;;;;3.60;3.40;;;;;;;19.12;51.08;96810.91;5028534;28;20732;-57
2022/05/03 11:12:06;;;;;;;3.70;3.50;;;;;;;19.07;50.74;96803.56;5043927;28;20476;-57
2022/05/03 11:14:48;;;;;;;3.90;3.47;;;;;;;19.30;50.80;96804.41;4996029;28;20203;-54
2022/05/03 11:17:16;;;;;;;3.57;3.37;;;;;;;19.42;50.76;96803.47;5042351;28;20206;-56
2022/05/03 11:20:04;;;;;;;3.80;3.60;;;;;;;19.38;51.25;96809.34;5041292;28;20292;-56
2022/05/03 11:22:35;;;;;;;3.17;3.07;;;;;;;19.86;49.30;96799.94;5015862;28;20412;-53
2022/05/03 11:25:14;;;;;;;3.43;3.23;;;;;;;20.20;48.17;96797.06;5043999;28;20734;-57
2022/05/03 11:27:44;;;;;;;3.67;3.47;;;;;;;20.47;45.23;96793.53;5042311;28;20821;-53
2022/05/03 11:30:16;;;;;;;3.00;2.80;;;;;;;21.02;47.11;96782.59;5001994;28;20223;-55
2022/05/03 11:32:44;;;;;;;3.47;3.27;;;;;;;21.48;45.07;96781.97;5042685;28;20280;-54
2022/05/03 11:35:17;;;;;;;3.60;3.40;;;;;;;21.62;46.11;96788.47;5040729;28;20586;-58
2022/05/03 11:37:48;;;;;;;3.67;3.37;;;;;;;21.57;45.69;96772.28;5021705;28;20511;-52
2022/05/03 11:40:16;;;;;;;3.13;2.93;;;;;;;21.62;44.38;96768.81;5042613;28;20219;-57
2022/05/03 11:42:46;;;;;;;3.60;3.43;;;;;;;21.57;43.93;96775.00;5039811;28;20770;-55
2022/05/03 11:45:15;;;;;;;3.30;3.10;;;;;;;21.33;42.67;96769.25;4998873;28;20226;-54
2022/05/03 11:47:45;;;;;;;3.93;3.73;;;;;;;21.76;41.93;96775.34;5041801;28;20385;-55
2022/05/03 11:55:58;;;;;;;3.27;3.07;;;;;;;21.90;43.15;96764.03;5041934;28;20310;-58
2022/05/03 11:56:01;;;;;;;3.13;2.97;;;;;;;22.18;44.76;96759.22;5046669;28;20298;-53
2022/05/03 11:58:31;;;;;;;2.77;2.57;;;;;;;22.08;43.63;96768.09;5038724;28;22067;-55
2022/05/03 12:00:59;;;;;;;13.27;5.07;;;;;;;21.83;41.86;96757.00;5000806;28;20231;-55
2022/05/03 12:03:28;;;;;;;3.13;2.93;;;;;;;21.72;43.66;96768.88;5038793;28;20205;-55
2022/05/03 12:06:03;;;;;;;3.40;3.10;;;;;;;21.70;45.60;96765.63;5042468;28;20223;-56
2022/05/03 12:08:32;;;;;;;4.57;2.80;;;;;;;22.12;45.23;96763.78;5023878;28;20240;-54
2022/05/03 12:11:00;;;;;;;3.33;3.10;;;;;;;22.14;43.84;96752.72;5040534;28;20414;-54
2022/05/03 12:13:31;;;;;;;3.17;2.97;;;;;;;22.05;41.98;96763.25;5035732;28;20211;-56
2022/05/03 12:16:07;;;;;;;3.40;3.20;;;;;;;22.28;42.22;96756.50;5004892;28;20334;-55
2022/05/03 12:18:37;;;;;;;3.40;3.20;;;;;;;22.27;42.58;96755.69;5041707;28;20199;-54
2022/05/03 12:21:09;;;;;;;3.13;2.93;;;;;;;22.29;41.51;96754.63;5047049;28;20219;-56
2022/05/03 12:23:42;;;;;;;3.97;3.23;;;;;;;22.82;41.16;96754.31;5019335;28;20300;-58